Bledsoe, Kentucky
Current Conditions -  °F | °C
As of 1:15 PM on Thursday 29 Jan 2015 (Local Time) from KI35 Reporting Station
Scattered Clouds Scattered Clouds  
Wind Chill: 52°   Ceiling: Unl
Heat Index: 52°   Visibility: 10mi
Dew Point: 32°   Wind: 9mph
Humidity: 47%   Direction: 220°SW
Pressure: 30"   Gusts: 20mph
Location:  36.87°N, 83.42°W
Report Text: KI35 291815Z AUTO 22008G17KT 170V320 10SM SCT048 11/00 A3000 RMK AO1
Loading
Personal Weather Stations






























Interactive Weather Map New forecast layout! Learn more

10-Day Weather Forecast

Advertisements
Track Severe Weather on mobile